createdAt,value
2023-09-26T00:01:29.089Z,15.90
2023-09-26T00:04:23.486Z,15.90
2023-09-26T00:07:10.717Z,15.80
2023-09-26T00:10:04.482Z,15.80
2023-09-26T00:12:51.794Z,15.70
2023-09-26T00:15:45.488Z,15.70
2023-09-26T00:18:32.722Z,15.70
2023-09-26T00:21:26.408Z,15.70
2023-09-26T00:24:26.421Z,15.70
2023-09-26T00:27:20.509Z,15.70
2023-09-26T00:30:09.854Z,15.70
2023-09-26T00:33:03.438Z,15.70
2023-09-26T00:35:50.603Z,15.70
2023-09-26T00:38:44.514Z,15.70
2023-09-26T00:41:38.425Z,15.70
2023-09-26T00:44:25.956Z,15.70
2023-09-26T00:47:20.451Z,15.80
2023-09-26T00:50:14.995Z,15.80
2023-09-26T00:53:08.426Z,15.80
2023-09-26T00:55:56.777Z,15.80
2023-09-26T00:58:51.455Z,15.80
2023-09-26T01:01:40.237Z,15.80
2023-09-26T01:04:34.556Z,15.80
2023-09-26T01:07:23.230Z,15.80
2023-09-26T01:10:17.534Z,15.80
2023-09-26T01:13:11.537Z,15.80
2023-09-26T01:16:05.508Z,15.80
2023-09-26T01:18:59.564Z,15.80
2023-09-26T01:21:47.047Z,15.80
2023-09-26T01:24:47.551Z,15.80
2023-09-26T01:27:35.231Z,15.80
2023-09-26T01:30:28.513Z,15.80
2023-09-26T01:33:20.367Z,15.90
2023-09-26T01:36:17.011Z,15.90
2023-09-26T01:39:04.428Z,16.00
2023-09-26T01:41:58.549Z,16.00
2023-09-26T01:44:45.842Z,16.00
2023-09-26T01:47:54.589Z,16.10
2023-09-26T01:50:48.593Z,16.10
2023-09-26T01:53:35.998Z,16.10
2023-09-26T01:56:29.591Z,16.10
2023-09-26T01:59:23.561Z,16.10
2023-09-26T02:02:11.055Z,16.10
2023-09-26T02:05:04.588Z,16.10
2023-09-26T02:07:58.567Z,16.10
2023-09-26T02:10:45.854Z,16.10
2023-09-26T02:13:39.751Z,16.10
2023-09-26T02:16:27.081Z,16.10
2023-09-26T02:19:20.712Z,16.10
2023-09-26T02:22:08.218Z,16.10
2023-09-26T02:25:08.639Z,16.10
2023-09-26T02:28:02.625Z,16.00
2023-09-26T02:30:56.638Z,16.00
2023-09-26T02:33:43.991Z,16.00
2023-09-26T02:36:37.619Z,15.90
2023-09-26T02:39:31.656Z,15.90
2023-09-26T02:42:18.808Z,15.90
2023-09-26T02:45:12.651Z,15.90
2023-09-26T02:48:00.495Z,15.90
2023-09-26T02:50:54.668Z,15.90
2023-09-26T02:53:41.856Z,15.90
2023-09-26T02:56:35.649Z,15.90
2023-09-26T02:59:22.831Z,15.90
2023-09-26T03:02:16.713Z,15.80
2023-09-26T03:05:10.683Z,15.80
2023-09-26T03:07:57.867Z,15.80
2023-09-26T03:10:51.656Z,15.70
2023-09-26T03:13:39.143Z,15.70
2023-09-26T03:16:32.769Z,15.60
2023-09-26T03:19:24.981Z,15.60
2023-09-26T03:22:18.786Z,15.60
2023-09-26T03:25:13.732Z,15.60
2023-09-26T03:28:11.838Z,15.50
2023-09-26T03:31:05.778Z,15.50
2023-09-26T03:33:53.461Z,15.50
2023-09-26T03:36:47.709Z,15.40
2023-09-26T03:39:41.714Z,15.40
2023-09-26T03:42:29.058Z,15.40
2023-09-26T03:45:22.711Z,15.40
2023-09-26T03:48:16.808Z,15.40
2023-09-26T03:51:14.891Z,15.40
2023-09-26T03:54:08.758Z,15.40
2023-09-26T03:57:02.861Z,15.40
2023-09-26T03:59:50.778Z,15.40
2023-09-26T04:02:44.784Z,15.40
2023-09-26T04:05:38.784Z,15.40
2023-09-26T04:08:25.932Z,15.40
2023-09-26T04:11:25.760Z,15.30
2023-09-26T04:14:12.890Z,15.30
2023-09-26T04:17:07.883Z,15.30
2023-09-26T04:20:01.841Z,15.30
2023-09-26T04:22:49.016Z,15.30
2023-09-26T04:25:42.789Z,15.30
2023-09-26T04:28:36.773Z,15.20
2023-09-26T04:31:24.016Z,15.20
2023-09-26T04:34:17.873Z,15.20
2023-09-26T04:37:11.928Z,15.20
2023-09-26T04:40:06.922Z,15.20
2023-09-26T04:43:00.891Z,15.20
2023-09-26T04:45:48.743Z,15.10
2023-09-26T04:48:42.807Z,15.10
2023-09-26T04:51:36.850Z,15.10
2023-09-26T04:54:24.016Z,15.10
2023-09-26T04:57:20.830Z,15.10
2023-09-26T05:00:18.675Z,15.10
2023-09-26T05:03:06.205Z,15.00
2023-09-26T05:05:59.902Z,15.00
2023-09-26T05:08:47.114Z,15.00
2023-09-26T05:11:40.896Z,15.00
2023-09-26T05:14:28.055Z,15.00
2023-09-26T05:17:21.885Z,15.00
2023-09-26T05:20:11.995Z,14.90
2023-09-26T05:23:07.857Z,14.90
2023-09-26T05:26:01.946Z,14.90
2023-09-26T05:28:49.192Z,14.90
2023-09-26T05:31:42.922Z,14.90
2023-09-26T05:34:36.993Z,14.90
2023-09-26T05:37:24.233Z,14.90
2023-09-26T05:40:18.911Z,14.90
2023-09-26T05:43:12.993Z,14.90
2023-09-26T05:46:01.240Z,14.90
2023-09-26T05:48:54.926Z,14.90
2023-09-26T05:51:48.897Z,14.90
2023-09-26T05:54:36.094Z,14.90
2023-09-26T05:57:35.904Z,14.90
2023-09-26T06:00:29.933Z,15.00
2023-09-26T06:03:17.302Z,15.00
2023-09-26T06:06:12.053Z,15.00
2023-09-26T06:09:06.016Z,15.00
2023-09-26T06:11:53.185Z,15.10
2023-09-26T06:14:46.984Z,15.10
2023-09-26T06:17:42.021Z,15.10
2023-09-26T06:20:29.990Z,15.20
2023-09-26T06:23:23.974Z,15.20
2023-09-26T06:26:17.947Z,15.30
2023-09-26T06:29:05.334Z,15.30
2023-09-26T06:34:54.991Z,15.40
2023-09-26T06:37:48.982Z,15.50
2023-09-26T06:40:36.255Z,15.60
2023-09-26T06:43:30.006Z,15.60
2023-09-26T06:46:17.297Z,15.70
2023-09-26T06:49:12.075Z,15.70
2023-09-26T06:51:59.374Z,15.80
2023-09-26T06:54:54.059Z,15.80
2023-09-26T06:57:49.148Z,15.90
2023-09-26T07:00:45.164Z,15.90
2023-09-26T07:03:33.304Z,15.90
2023-09-26T07:06:27.061Z,16.00
2023-09-26T07:09:21.052Z,16.10
2023-09-26T07:12:08.322Z,16.20
2023-09-26T07:15:04.100Z,16.30
2023-09-26T07:17:58.129Z,16.30
2023-09-26T07:20:48.977Z,16.40
2023-09-26T07:23:44.358Z,16.40
2023-09-26T07:26:33.513Z,16.50
2023-09-26T07:29:27.054Z,16.50
2023-09-26T07:32:18.701Z,16.50
2023-09-26T07:35:13.129Z,16.50
2023-09-26T07:38:08.089Z,16.50
2023-09-26T07:40:55.657Z,16.40
2023-09-26T07:43:49.297Z,16.40
2023-09-26T07:46:37.160Z,16.40
2023-09-26T07:49:31.132Z,16.40
2023-09-26T07:52:18.789Z,16.40
2023-09-26T07:55:14.259Z,16.50
2023-09-26T07:58:01.591Z,16.50
2023-09-26T08:00:55.191Z,16.50
2023-09-26T08:03:51.520Z,16.60
2023-09-26T08:06:38.844Z,16.70
2023-09-26T08:09:32.140Z,16.70
2023-09-26T08:12:19.311Z,16.80
2023-09-26T08:15:21.179Z,16.80
2023-09-26T08:18:08.353Z,16.80
2023-09-26T08:21:05.168Z,16.90
2023-09-26T08:24:01.150Z,17.00
2023-09-26T08:26:48.368Z,17.10
2023-09-26T08:29:42.145Z,17.20
2023-09-26T08:32:29.470Z,17.30
2023-09-26T08:35:23.184Z,17.40
2023-09-26T08:38:10.346Z,17.50
2023-09-26T08:41:05.220Z,17.70
2023-09-26T08:43:59.167Z,17.70
2023-09-26T08:46:46.809Z,17.80
2023-09-26T08:49:42.273Z,17.90
2023-09-26T08:52:36.209Z,17.90
2023-09-26T08:55:30.277Z,17.90
2023-09-26T08:58:18.578Z,18.00
2023-09-26T09:01:12.353Z,18.10
2023-09-26T09:04:06.341Z,18.10
2023-09-26T09:07:06.198Z,18.20
2023-09-26T09:10:18.382Z,18.40
2023-09-26T09:13:07.888Z,18.60
2023-09-26T09:16:22.322Z,18.80
2023-09-26T09:19:09.522Z,19.00
2023-09-26T09:22:25.312Z,19.00
2023-09-26T09:25:13.077Z,19.20
2023-09-26T09:28:07.292Z,19.30
2023-09-26T09:31:01.299Z,19.30
2023-09-26T09:33:50.506Z,19.30
2023-09-26T09:36:47.289Z,19.20
2023-09-26T09:39:41.304Z,19.20
2023-09-26T09:42:28.888Z,19.20
2023-09-26T09:45:23.310Z,19.20
2023-09-26T09:48:11.296Z,19.30
2023-09-26T09:51:11.315Z,19.30
2023-09-26T09:54:01.370Z,19.30
2023-09-26T09:57:00.309Z,19.30
2023-09-26T09:59:54.393Z,19.30
2023-09-26T10:02:42.313Z,19.30
2023-09-26T10:05:38.374Z,19.30
2023-09-26T10:08:28.150Z,19.40
2023-09-26T10:11:24.337Z,19.40
2023-09-26T10:14:13.598Z,19.60
2023-09-26T10:17:07.363Z,19.60
2023-09-26T10:20:24.100Z,19.70
2023-09-26T10:23:12.712Z,19.70
2023-09-26T10:26:09.396Z,19.70
2023-09-26T10:28:56.561Z,20.00
2023-09-26T10:32:01.478Z,20.20
2023-09-26T10:34:54.634Z,20.30
2023-09-26T10:37:57.451Z,20.40
2023-09-26T10:40:51.405Z,20.50
2023-09-26T10:46:52.481Z,20.50
2023-09-26T10:49:40.011Z,20.60
2023-09-26T10:52:34.512Z,20.70
2023-09-26T10:58:39.523Z,21.00
2023-09-26T11:01:39.411Z,21.10
2023-09-26T11:04:37.009Z,21.20
2023-09-26T11:07:31.717Z,21.30
2023-09-26T11:10:19.230Z,21.30
2023-09-26T11:13:13.428Z,21.40
2023-09-26T11:16:28.529Z,21.40
2023-09-26T11:19:18.513Z,21.50
2023-09-26T11:22:12.484Z,21.70
2023-09-26T11:25:10.030Z,21.70
2023-09-26T11:28:03.447Z,21.80
2023-09-26T11:30:50.663Z,22.10
2023-09-26T11:33:45.500Z,22.40
2023-09-26T11:36:32.923Z,22.60
2023-09-26T11:39:28.477Z,22.80
2023-09-26T11:42:25.872Z,22.80
2023-09-26T11:45:23.435Z,22.80
2023-09-26T11:48:17.471Z,22.80
2023-09-26T11:51:05.013Z,22.80
2023-09-26T11:54:05.480Z,22.90
2023-09-26T11:57:00.501Z,23.00
2023-09-26T11:59:47.588Z,23.20
2023-09-26T12:02:41.631Z,23.30
2023-09-26T12:05:28.939Z,23.40
2023-09-26T12:08:22.603Z,23.30
2023-09-26T12:11:09.844Z,23.20
2023-09-26T12:14:04.595Z,23.40
2023-09-26T12:16:58.745Z,23.70
2023-09-26T12:19:52.547Z,23.80
2023-09-26T12:22:46.559Z,23.70
2023-09-26T12:25:33.835Z,23.40
2023-09-26T12:28:30.742Z,23.30
2023-09-26T12:31:18.584Z,23.20
2023-09-26T12:34:12.580Z,23.20
2023-09-26T12:37:00.545Z,23.30
2023-09-26T12:39:54.604Z,23.20
2023-09-26T12:42:42.581Z,23.00
2023-09-26T12:45:37.594Z,22.70
2023-09-26T12:48:31.669Z,22.60
2023-09-26T12:51:18.915Z,22.50
2023-09-26T12:54:12.603Z,22.40
2023-09-26T12:57:02.853Z,22.30
2023-09-26T12:59:57.705Z,22.30
2023-09-26T13:02:45.195Z,22.20
2023-09-26T13:05:40.093Z,22.20
2023-09-26T13:08:33.641Z,22.30
2023-09-26T13:11:20.839Z,22.30
2023-09-26T13:14:14.743Z,22.40
2023-09-26T13:17:02.168Z,22.50
2023-09-26T13:19:55.702Z,22.40
2023-09-26T13:22:50.755Z,22.40
2023-09-26T13:25:38.209Z,22.30
2023-09-26T13:28:31.677Z,22.40
2023-09-26T13:31:18.856Z,22.50
2023-09-26T13:34:12.704Z,22.80
2023-09-26T13:37:00.188Z,22.90
2023-09-26T13:39:53.683Z,23.10
2023-09-26T13:42:41.099Z,23.10
2023-09-26T13:45:34.666Z,23.00
2023-09-26T13:48:28.753Z,23.00
2023-09-26T13:51:22.687Z,23.30
2023-09-26T13:54:16.716Z,23.40
2023-09-26T13:57:04.099Z,23.60
2023-09-26T13:59:57.776Z,23.70
2023-09-26T14:02:45.156Z,23.70
2023-09-26T14:05:38.832Z,23.60
2023-09-26T14:08:32.741Z,23.50
2023-09-26T14:11:20.583Z,23.40
2023-09-26T14:14:20.832Z,23.20
2023-09-26T14:17:08.109Z,23.20
2023-09-26T14:20:01.757Z,23.10
2023-09-26T14:22:49.053Z,22.90
2023-09-26T14:25:42.770Z,22.80
2023-09-26T14:28:30.337Z,22.60
2023-09-26T14:31:26.775Z,22.50
2023-09-26T14:34:20.813Z,22.40
2023-09-26T14:37:08.179Z,22.40
2023-09-26T14:40:01.799Z,22.40
2023-09-26T14:42:48.987Z,22.30
2023-09-26T14:45:52.870Z,22.30
2023-09-26T14:48:47.760Z,22.30
2023-09-26T14:51:34.971Z,22.20
2023-09-26T14:54:28.822Z,22.20
2023-09-26T14:57:16.072Z,22.20
2023-09-26T15:00:09.838Z,22.10
2023-09-26T15:03:03.960Z,22.20
2023-09-26T15:05:57.863Z,22.20
2023-09-26T15:08:51.805Z,22.20
2023-09-26T15:11:39.088Z,22.20
2023-09-26T15:14:32.959Z,22.10
2023-09-26T15:17:26.867Z,22.10
2023-09-26T15:20:15.417Z,22.00
2023-09-26T15:23:08.877Z,22.00
2023-09-26T15:26:02.903Z,21.90
2023-09-26T15:28:50.915Z,21.90
2023-09-26T15:31:47.235Z,21.90
2023-09-26T15:34:34.616Z,21.90
2023-09-26T15:37:28.865Z,21.80
2023-09-26T15:40:16.139Z,21.70
2023-09-26T15:43:09.995Z,21.60
2023-09-26T15:45:57.322Z,21.50
2023-09-26T15:48:53.856Z,21.40
2023-09-26T15:51:47.871Z,21.30
2023-09-26T15:54:35.156Z,21.30
2023-09-26T15:57:31.420Z,21.20
2023-09-26T16:00:21.031Z,21.20
2023-09-26T16:03:14.941Z,21.10
2023-09-26T16:06:02.569Z,21.10
2023-09-26T16:08:56.063Z,21.00
2023-09-26T16:11:49.888Z,21.00
2023-09-26T16:14:43.877Z,20.90
2023-09-26T16:17:31.285Z,20.80
2023-09-26T16:20:24.939Z,20.70
2023-09-26T16:23:12.370Z,20.70
2023-09-26T16:26:05.983Z,20.60
2023-09-26T16:28:54.160Z,20.60
2023-09-26T16:31:48.065Z,20.60
2023-09-26T16:34:35.329Z,20.60
2023-09-26T16:37:28.931Z,20.50
2023-09-26T16:40:16.283Z,20.50
2023-09-26T16:43:13.056Z,20.40
2023-09-26T16:46:00.630Z,20.40
2023-09-26T16:48:57.037Z,20.30
2023-09-26T16:51:45.176Z,20.30
2023-09-26T16:54:39.108Z,20.30
2023-09-26T16:57:28.249Z,20.20
2023-09-26T17:00:22.031Z,20.20
2023-09-26T17:03:09.405Z,20.10
2023-09-26T17:06:06.033Z,20.00
2023-09-26T17:08:53.397Z,20.00
2023-09-26T17:11:48.489Z,19.90
2023-09-26T17:14:45.992Z,19.90
2023-09-26T17:17:40.135Z,19.80
2023-09-26T17:20:34.047Z,19.70
2023-09-26T17:23:24.810Z,19.60
2023-09-26T17:26:19.062Z,19.60
2023-09-26T17:29:06.622Z,19.50
2023-09-26T17:32:00.237Z,19.40
2023-09-26T17:35:01.153Z,19.40
2023-09-26T17:37:48.426Z,19.30
2023-09-26T17:40:42.158Z,19.30
2023-09-26T17:43:29.540Z,19.20
2023-09-26T17:46:23.125Z,19.20
2023-09-26T17:49:10.984Z,19.10
2023-09-26T17:52:05.185Z,19.10
2023-09-26T17:54:59.122Z,19.10
2023-09-26T17:57:49.634Z,19.00
2023-09-26T18:00:43.101Z,19.00
2023-09-26T18:03:39.138Z,18.90
2023-09-26T18:06:35.131Z,18.90
2023-09-26T18:09:29.071Z,18.80
2023-09-26T18:12:16.264Z,18.80
2023-09-26T18:15:14.808Z,18.80
2023-09-26T18:18:05.339Z,18.70
2023-09-26T18:20:59.117Z,18.70
2023-09-26T18:23:53.111Z,18.70
2023-09-26T18:26:40.301Z,18.70
2023-09-26T18:29:34.154Z,18.60
2023-09-26T18:32:21.802Z,18.60
2023-09-26T18:35:16.157Z,18.60
2023-09-26T18:38:10.204Z,18.60
2023-09-26T18:40:57.433Z,18.50
2023-09-26T18:43:53.165Z,18.40
2023-09-26T18:46:47.207Z,18.40
2023-09-26T18:49:34.484Z,18.40
2023-09-26T18:52:28.255Z,18.40
2023-09-26T18:55:15.654Z,18.30
2023-09-26T18:58:09.172Z,18.30
2023-09-26T19:00:56.744Z,18.30
2023-09-26T19:03:50.457Z,18.20
2023-09-26T19:06:44.300Z,18.20
2023-09-26T19:09:32.602Z,18.20
2023-09-26T19:12:30.263Z,18.20
2023-09-26T19:15:24.218Z,18.10
2023-09-26T19:18:18.289Z,18.10
2023-09-26T19:21:06.591Z,18.10
2023-09-26T19:24:00.217Z,18.10
2023-09-26T19:26:54.212Z,18.00
2023-09-26T19:29:43.868Z,18.00
2023-09-26T19:32:37.278Z,17.90
2023-09-26T19:35:31.203Z,18.00
2023-09-26T19:38:25.439Z,17.90
2023-09-26T19:41:12.747Z,17.90
2023-09-26T19:44:06.334Z,17.90
2023-09-26T19:46:53.993Z,17.80
2023-09-26T19:49:48.287Z,17.80
2023-09-26T19:52:42.310Z,17.80
2023-09-26T19:55:36.242Z,17.80
2023-09-26T19:58:23.536Z,17.70
2023-09-26T20:01:17.240Z,17.80
2023-09-26T20:04:05.012Z,17.80
2023-09-26T20:06:59.285Z,17.70
2023-09-26T20:09:53.297Z,17.70
2023-09-26T20:12:47.298Z,17.70
2023-09-26T20:15:34.640Z,17.60
2023-09-26T20:18:28.294Z,17.70
2023-09-26T20:21:25.274Z,17.70
2023-09-26T20:24:12.705Z,17.60
2023-09-26T20:27:07.381Z,17.60
2023-09-26T20:29:55.408Z,17.70
2023-09-26T20:32:49.336Z,17.60
2023-09-26T20:35:43.310Z,17.70
2023-09-26T20:38:37.890Z,17.70
2023-09-26T20:41:26.538Z,17.70
2023-09-26T20:44:20.451Z,17.70
2023-09-26T20:47:08.987Z,17.70
2023-09-26T20:50:03.421Z,17.70
2023-09-26T20:52:50.690Z,17.70
2023-09-26T20:55:44.454Z,17.80
2023-09-26T20:58:41.407Z,17.80
2023-09-26T21:01:28.620Z,17.80
2023-09-26T21:04:26.848Z,17.80
2023-09-26T21:07:14.134Z,17.80
2023-09-26T21:10:08.387Z,17.70
2023-09-26T21:13:02.396Z,17.70
2023-09-26T21:15:49.601Z,17.60
2023-09-26T21:18:43.511Z,17.70
2023-09-26T21:21:37.441Z,17.60
2023-09-26T21:24:24.842Z,17.60
2023-09-26T21:27:18.459Z,17.60
2023-09-26T21:30:08.109Z,17.60
2023-09-26T21:33:02.420Z,17.60
2023-09-26T21:35:50.990Z,17.60
2023-09-26T21:38:44.515Z,17.60
2023-09-26T21:41:31.768Z,17.60
2023-09-26T21:44:27.155Z,17.60
2023-09-26T21:47:20.540Z,17.60
2023-09-26T21:50:08.054Z,17.60
2023-09-26T21:53:01.432Z,17.60
2023-09-26T21:55:55.564Z,17.60
2023-09-26T21:58:42.884Z,17.50
2023-09-26T22:01:36.584Z,17.60
2023-09-26T22:04:23.796Z,17.50
2023-09-26T22:07:17.490Z,17.60
2023-09-26T22:10:05.034Z,17.60
2023-09-26T22:12:58.535Z,17.50
2023-09-26T22:15:52.770Z,17.50
2023-09-26T22:18:39.953Z,17.50
2023-09-26T22:21:33.457Z,17.50
2023-09-26T22:24:27.451Z,17.50
2023-09-26T22:27:14.693Z,17.40
2023-09-26T22:30:09.501Z,17.40
2023-09-26T22:33:03.583Z,17.30
2023-09-26T22:35:50.975Z,17.20
2023-09-26T22:38:44.570Z,17.20
2023-09-26T22:41:38.548Z,17.20
2023-09-26T22:44:32.873Z,17.20
2023-09-26T22:47:27.615Z,17.10
2023-09-26T22:50:24.627Z,17.10
2023-09-26T22:53:18.594Z,17.10
2023-09-26T22:56:06.214Z,17.10
2023-09-26T22:59:00.578Z,17.00
2023-09-26T23:01:54.609Z,17.00
2023-09-26T23:04:41.829Z,17.00
2023-09-26T23:07:37.530Z,16.90
2023-09-26T23:10:24.905Z,16.90
2023-09-26T23:13:18.644Z,16.90
2023-09-26T23:16:12.572Z,16.90
2023-09-26T23:18:59.899Z,16.90
2023-09-26T23:21:53.597Z,16.90
2023-09-26T23:24:40.836Z,17.00
2023-09-26T23:27:37.617Z,17.00
2023-09-26T23:30:24.783Z,17.00
2023-09-26T23:33:18.776Z,17.00
2023-09-26T23:36:15.927Z,17.00
2023-09-26T23:39:13.341Z,16.90
2023-09-26T23:42:00.622Z,16.90
2023-09-26T23:44:54.743Z,16.80
2023-09-26T23:47:42.652Z,16.80
2023-09-26T23:50:36.602Z,16.80
2023-09-26T23:53:23.887Z,16.70
2023-09-26T23:56:17.811Z,16.70
2023-09-26T23:59:11.669Z,16.70
